Terminal Aerodrome Forecast
Issued by NWS Cleveland, OH

Home | Current Version | Previous Version | Graphics & Text | Print | Product List | Glossary On
Versions: 1 2 3 4 5 6 7 8 9 10 11 12 13 14 15 16 17 18 19 20 21
404
FTUS41 KCLE 170525
TAFTOL
TAF
KTOL 170525Z 1706/1806 10005KT 1 1/2SM -RA BR OVC003
      TEMPO 1706/1709 1/2SM -RA FG VV002
     FM170900 14006KT 3SM -RA BR SCT003 OVC025
      TEMPO 1709/1712 SCT003 OVC015
     FM171200 22008KT 4SM -SHRA BR OVC003
     FM171700 25012G20KT 5SM BR BKN008 OVC012=

USA.gov is the U.S. government's official web portal to all federal, state and local government web resources and services.